createdAt,value
2022-11-20T00:00:11.879Z,6.43
2022-11-20T00:02:39.511Z,6.97
2022-11-20T00:05:07.362Z,7.10
2022-11-20T00:07:34.784Z,6.90
2022-11-20T00:10:02.777Z,7.03
2022-11-20T00:12:32.827Z,6.82
2022-11-20T00:15:00.468Z,7.38
2022-11-20T00:17:28.048Z,7.07
2022-11-20T00:19:55.534Z,8.10
2022-11-20T00:22:24.409Z,6.45
2022-11-20T00:24:54.779Z,6.10
2022-11-20T00:27:22.364Z,6.70
2022-11-20T00:29:49.823Z,6.22
2022-11-20T00:32:17.343Z,7.20
2022-11-20T00:34:44.704Z,7.63
2022-11-20T00:37:12.226Z,8.02
2022-11-20T00:39:41.922Z,8.30
2022-11-20T00:42:09.394Z,8.52
2022-11-20T00:44:36.962Z,8.48
2022-11-20T00:47:04.604Z,7.75
2022-11-20T00:49:32.014Z,7.93
2022-11-20T00:51:59.530Z,7.70
2022-11-20T00:54:30.505Z,8.02
2022-11-20T00:57:04.393Z,7.32
2022-11-20T00:59:37.055Z,7.47
2022-11-20T01:02:13.341Z,7.70
2022-11-20T01:04:40.860Z,8.10
2022-11-20T01:07:08.307Z,7.72
2022-11-20T01:09:40.597Z,7.72
2022-11-20T01:12:08.105Z,7.55
2022-11-20T01:14:37.310Z,7.82
2022-11-20T01:17:07.013Z,8.07
2022-11-20T01:19:40.001Z,7.85
2022-11-20T01:22:08.867Z,8.20
2022-11-20T01:24:38.462Z,8.75
2022-11-20T01:27:06.347Z,7.43
2022-11-20T01:29:33.882Z,7.75
2022-11-20T01:32:01.493Z,7.28
2022-11-20T01:34:29.004Z,8.27
2022-11-20T01:36:56.477Z,7.75
2022-11-20T01:39:25.662Z,7.97
2022-11-20T01:42:12.743Z,7.63
2022-11-20T01:47:11.353Z,9.27
2022-11-20T01:49:45.791Z,8.68
2022-11-20T01:52:19.494Z,8.57
2022-11-20T01:54:50.777Z,8.65
2022-11-20T01:57:21.196Z,9.40
2022-11-20T01:59:55.931Z,9.65
2022-11-20T02:02:23.598Z,8.88
2022-11-20T02:04:52.710Z,9.60
2022-11-20T02:07:20.908Z,9.57
2022-11-20T02:09:48.591Z,9.55
2022-11-20T02:12:36.992Z,8.18
2022-11-20T02:15:07.183Z,8.02
2022-11-20T02:17:34.613Z,9.10
2022-11-20T02:20:02.336Z,8.30
2022-11-20T02:22:32.915Z,8.13
2022-11-20T02:25:01.464Z,7.30
2022-11-20T02:27:31.437Z,7.80
2022-11-20T02:30:00.547Z,7.60
2022-11-20T02:32:36.030Z,6.70
2022-11-20T02:35:12.347Z,7.40
2022-11-20T02:37:42.817Z,7.45
2022-11-20T02:40:10.785Z,8.00
2022-11-20T02:42:40.419Z,6.88
2022-11-20T02:45:08.517Z,7.63
2022-11-20T02:47:38.685Z,7.15
2022-11-20T02:50:06.531Z,6.95
2022-11-20T02:52:33.979Z,7.00
2022-11-20T02:55:01.590Z,7.47
2022-11-20T02:57:29.185Z,7.25
2022-11-20T02:59:56.886Z,7.55
2022-11-20T03:02:24.565Z,7.05
2022-11-20T03:04:54.108Z,7.05
2022-11-20T03:07:21.728Z,7.25
2022-11-20T03:09:49.097Z,7.15
2022-11-20T03:12:19.615Z,7.38
2022-11-20T03:14:52.580Z,6.72
2022-11-20T03:17:20.633Z,7.10
2022-11-20T03:19:48.065Z,7.10
2022-11-20T03:22:15.423Z,7.05
2022-11-20T03:24:44.418Z,6.90
2022-11-20T03:27:11.854Z,7.32
2022-11-20T03:29:39.258Z,7.15
2022-11-20T03:32:06.716Z,6.63
2022-11-20T03:34:37.742Z,7.60
2022-11-20T03:37:05.454Z,7.07
2022-11-20T03:39:41.609Z,7.25
2022-11-20T03:42:29.930Z,6.93
2022-11-20T03:44:57.471Z,7.30
2022-11-20T03:47:24.982Z,6.80
2022-11-20T03:49:52.409Z,7.15
2022-11-20T03:52:19.750Z,7.05
2022-11-20T03:54:52.751Z,7.25
2022-11-20T03:57:20.155Z,6.45
2022-11-20T03:59:47.688Z,7.20
2022-11-20T04:02:15.337Z,7.35
2022-11-20T04:04:45.247Z,6.32
2022-11-20T04:07:12.755Z,7.05
2022-11-20T04:09:40.263Z,6.88
2022-11-20T04:12:07.809Z,7.15
2022-11-20T04:14:35.283Z,7.60
2022-11-20T04:17:02.611Z,6.78
2022-11-20T04:19:29.946Z,6.80
2022-11-20T04:21:57.512Z,6.35
2022-11-20T04:24:26.896Z,6.18
2022-11-20T04:26:54.287Z,7.13
2022-11-20T04:29:24.435Z,6.95
2022-11-20T04:31:51.977Z,7.60
2022-11-20T04:34:21.700Z,7.85
2022-11-20T04:36:51.949Z,6.93
2022-11-20T04:39:21.963Z,6.38
2022-11-20T04:42:12.354Z,6.95
2022-11-20T04:44:39.764Z,7.18
2022-11-20T04:47:07.519Z,6.63
2022-11-20T04:49:35.130Z,7.35
2022-11-20T04:52:05.046Z,6.80
2022-11-20T04:54:32.444Z,7.68
2022-11-20T04:56:59.724Z,7.15
2022-11-20T04:59:27.195Z,6.97
2022-11-20T05:01:54.680Z,7.32
2022-11-20T05:04:24.357Z,7.35
2022-11-20T05:09:24.604Z,7.50
2022-11-20T05:11:54.685Z,7.50
2022-11-20T05:14:24.089Z,7.13
2022-11-20T05:19:21.422Z,6.95
2022-11-20T05:21:49.081Z,7.13
2022-11-20T05:24:18.909Z,6.97
2022-11-20T05:26:46.435Z,7.45
2022-11-20T05:29:14.088Z,7.65
2022-11-20T05:31:47.100Z,7.57
2022-11-20T05:34:17.178Z,7.85
2022-11-20T05:36:44.685Z,8.02
2022-11-20T05:39:13.436Z,7.07
2022-11-20T05:41:41.040Z,6.85
2022-11-20T05:44:08.485Z,7.40
2022-11-20T05:46:38.129Z,7.82
2022-11-20T05:49:05.563Z,6.97
2022-11-20T05:51:32.965Z,7.10
2022-11-20T05:54:00.456Z,7.45
2022-11-20T05:56:27.850Z,7.15
2022-11-20T05:58:55.536Z,8.05
2022-11-20T06:01:25.100Z,7.05
2022-11-20T06:06:20.602Z,6.80
2022-11-20T06:08:48.604Z,7.70
2022-11-20T06:11:19.247Z,7.32
2022-11-20T06:13:47.050Z,7.38
2022-11-20T06:16:16.208Z,7.63
2022-11-20T06:18:45.893Z,7.55
2022-11-20T06:21:15.756Z,7.60
2022-11-20T06:23:48.125Z,7.47
2022-11-20T06:26:26.278Z,7.63
2022-11-20T06:29:00.836Z,7.85
2022-11-20T06:31:31.023Z,7.75
2022-11-20T06:33:58.596Z,7.38
2022-11-20T06:36:28.880Z,7.35
2022-11-20T06:38:56.369Z,6.97
2022-11-20T06:41:24.090Z,7.40
2022-11-20T06:43:51.666Z,7.25
2022-11-20T06:46:20.509Z,7.95
2022-11-20T06:48:48.353Z,6.57
2022-11-20T06:51:20.293Z,7.35
2022-11-20T06:53:47.889Z,7.82
2022-11-20T06:56:15.353Z,7.70
2022-11-20T06:58:43.072Z,7.95
2022-11-20T07:01:16.157Z,8.43
2022-11-20T07:03:52.905Z,7.90
2022-11-20T07:06:21.579Z,7.72
2022-11-20T07:08:49.068Z,7.43
2022-11-20T07:11:18.985Z,7.70
2022-11-20T07:13:46.848Z,7.63
2022-11-20T07:16:14.342Z,8.02
2022-11-20T07:18:44.814Z,8.75
2022-11-20T07:21:16.685Z,8.60
2022-11-20T07:23:44.198Z,9.20
2022-11-20T07:26:12.607Z,8.50
2022-11-20T07:28:42.088Z,8.15
2022-11-20T07:31:12.407Z,8.18
2022-11-20T07:33:43.439Z,8.00
2022-11-20T07:36:10.939Z,9.45
2022-11-20T07:38:39.193Z,9.13
2022-11-20T07:41:06.542Z,8.07
2022-11-20T07:43:38.515Z,9.20
2022-11-20T07:46:08.572Z,8.85
2022-11-20T07:48:36.043Z,9.40
2022-11-20T07:51:03.707Z,8.02
2022-11-20T07:53:33.522Z,8.30
2022-11-20T07:56:02.084Z,8.05
2022-11-20T07:58:30.808Z,8.57
2022-11-20T08:00:58.468Z,7.88
2022-11-20T08:03:26.117Z,8.13
2022-11-20T08:05:53.679Z,8.10
2022-11-20T08:08:22.385Z,7.78
2022-11-20T08:10:49.914Z,7.93
2022-11-20T08:13:36.030Z,8.27
2022-11-20T08:18:36.330Z,7.90
2022-11-20T08:21:10.549Z,8.02
2022-11-20T08:23:37.940Z,8.38
2022-11-20T08:26:05.371Z,8.43
2022-11-20T08:28:32.826Z,8.60
2022-11-20T08:31:01.403Z,8.93
2022-11-20T08:33:29.258Z,8.52
2022-11-20T08:36:02.299Z,8.05
2022-11-20T08:38:29.762Z,8.30
2022-11-20T08:41:19.389Z,7.97
2022-11-20T08:43:46.830Z,8.55
2022-11-20T08:46:14.405Z,8.57
2022-11-20T08:48:41.640Z,8.05
2022-11-20T08:51:10.469Z,8.27
2022-11-20T08:53:39.081Z,8.90
2022-11-20T08:56:06.805Z,8.18
2022-11-20T08:58:55.044Z,7.85
2022-11-20T09:01:22.354Z,8.77
2022-11-20T09:03:49.773Z,8.85
2022-11-20T09:06:17.338Z,8.38
2022-11-20T09:08:44.745Z,8.35
2022-11-20T09:11:14.942Z,8.30
2022-11-20T09:13:42.323Z,8.48
2022-11-20T09:16:10.253Z,8.57
2022-11-20T09:18:40.169Z,8.85
2022-11-20T09:21:11.741Z,9.25
2022-11-20T09:23:39.696Z,8.95
2022-11-20T09:26:08.332Z,8.55
2022-11-20T09:28:35.604Z,8.93
2022-11-20T09:31:06.301Z,8.98
2022-11-20T09:33:33.678Z,8.70
2022-11-20T09:36:00.967Z,9.23
2022-11-20T09:38:28.343Z,8.68
2022-11-20T09:40:55.943Z,8.75
2022-11-20T09:43:32.355Z,9.05
2022-11-20T09:46:14.414Z,8.43
2022-11-20T09:48:57.998Z,9.30
2022-11-20T09:51:29.014Z,9.50
2022-11-20T09:54:08.190Z,9.27
2022-11-20T09:56:39.353Z,9.02
2022-11-20T09:59:08.279Z,9.20
2022-11-20T10:01:37.283Z,9.23
2022-11-20T10:04:05.366Z,10.15
2022-11-20T10:06:49.362Z,9.23
2022-11-20T10:09:27.939Z,18.63
2022-11-20T10:11:58.187Z,18.73
2022-11-20T10:14:48.857Z,14.55
2022-11-20T10:17:31.691Z,13.73
2022-11-20T10:20:17.905Z,11.98
2022-11-20T10:23:06.778Z,10.75
2022-11-20T10:25:41.785Z,19.15
2022-11-20T10:28:12.152Z,14.57
2022-11-20T10:30:42.531Z,11.88
2022-11-20T10:34:05.166Z,10.75
2022-11-20T10:39:52.590Z,9.55
2022-11-20T10:43:11.977Z,10.43
2022-11-20T10:45:59.076Z,10.30
2022-11-20T10:48:27.068Z,9.65
2022-11-20T10:51:03.528Z,10.85
2022-11-20T10:53:42.471Z,10.30
2022-11-20T10:56:32.476Z,9.68
2022-11-20T10:59:04.810Z,10.32
2022-11-20T11:01:32.238Z,10.05
2022-11-20T11:04:00.454Z,10.98
2022-11-20T11:06:42.664Z,10.38
2022-11-20T11:09:22.053Z,9.77
2022-11-20T11:11:49.485Z,10.88
2022-11-20T11:14:17.485Z,11.23
2022-11-20T11:16:55.316Z,11.38
2022-11-20T11:19:23.222Z,10.82
2022-11-20T11:21:56.048Z,11.00
2022-11-20T11:24:41.599Z,11.02
2022-11-20T11:27:17.174Z,12.10
2022-11-20T11:29:45.199Z,11.85
2022-11-20T11:32:15.711Z,10.63
2022-11-20T11:34:43.068Z,11.45
2022-11-20T11:37:22.636Z,11.02
2022-11-20T11:40:03.952Z,11.02
2022-11-20T11:42:43.463Z,11.60
2022-11-20T11:45:15.932Z,11.23
2022-11-20T11:47:43.137Z,11.10
2022-11-20T11:50:12.077Z,11.50
2022-11-20T11:52:43.382Z,11.38
2022-11-20T11:55:15.980Z,11.30
2022-11-20T11:57:43.451Z,11.85
2022-11-20T12:00:12.386Z,11.07
2022-11-20T12:02:44.120Z,11.95
2022-11-20T12:05:23.412Z,13.15
2022-11-20T12:08:01.103Z,12.38
2022-11-20T12:10:28.526Z,12.75
2022-11-20T12:13:28.503Z,12.73
2022-11-20T12:15:55.812Z,12.05
2022-11-20T12:18:23.747Z,13.00
2022-11-20T12:20:58.920Z,13.77
2022-11-20T12:23:49.207Z,12.40
2022-11-20T12:26:29.114Z,13.50
2022-11-20T12:29:13.558Z,13.05
2022-11-20T12:31:59.685Z,12.95
2022-11-20T12:34:49.586Z,13.55
2022-11-20T12:37:16.832Z,12.27
2022-11-20T12:39:45.629Z,13.23
2022-11-20T12:42:39.434Z,12.90
2022-11-20T12:45:12.250Z,13.40
2022-11-20T12:47:52.070Z,12.73
2022-11-20T12:50:19.622Z,12.77
2022-11-20T12:52:56.859Z,12.45
2022-11-20T12:55:29.707Z,11.90
2022-11-20T12:58:00.575Z,12.23
2022-11-20T13:00:28.196Z,12.30
2022-11-20T13:03:05.397Z,13.93
2022-11-20T13:05:39.895Z,13.88
2022-11-20T13:08:13.037Z,13.57
2022-11-20T13:11:09.288Z,13.25
2022-11-20T13:14:05.268Z,12.85
2022-11-20T13:16:39.845Z,12.68
2022-11-20T13:19:11.313Z,12.50
2022-11-20T13:21:40.328Z,12.20
2022-11-20T13:24:28.588Z,12.27
2022-11-20T13:27:02.175Z,11.93
2022-11-20T13:29:30.967Z,12.43
2022-11-20T13:32:08.964Z,12.55
2022-11-20T13:34:37.142Z,12.00
2022-11-20T13:37:04.936Z,12.45
2022-11-20T13:39:36.390Z,12.50
2022-11-20T13:42:05.280Z,12.55
2022-11-20T13:44:42.000Z,12.32
2022-11-20T13:47:23.153Z,13.18
2022-11-20T13:49:50.796Z,13.40
2022-11-20T13:52:35.768Z,13.57
2022-11-20T13:55:03.195Z,13.25
2022-11-20T13:58:09.384Z,13.20
2022-11-20T14:00:44.957Z,12.93
2022-11-20T14:03:28.387Z,13.00
2022-11-20T14:06:14.650Z,11.65
2022-11-20T14:08:44.017Z,13.20
2022-11-20T14:11:19.232Z,11.80
2022-11-20T14:13:55.908Z,12.80
2022-11-20T14:16:24.107Z,11.85
2022-11-20T14:18:51.571Z,12.98
2022-11-20T14:21:25.791Z,12.65
2022-11-20T14:24:05.087Z,13.77
2022-11-20T14:26:33.052Z,13.00
2022-11-20T14:29:00.975Z,12.52
2022-11-20T14:31:29.748Z,13.68
2022-11-20T14:33:57.378Z,12.95
2022-11-20T14:36:25.680Z,13.07
2022-11-20T14:38:55.198Z,13.85
2022-11-20T14:41:33.867Z,13.63
2022-11-20T14:44:03.129Z,15.13
2022-11-20T14:46:31.928Z,15.65
2022-11-20T14:49:02.080Z,15.25
2022-11-20T14:51:33.920Z,15.05
2022-11-20T14:54:23.137Z,16.50
2022-11-20T14:57:01.348Z,15.95
2022-11-20T14:59:39.477Z,15.38
2022-11-20T15:02:10.729Z,14.82
2022-11-20T15:04:47.207Z,14.20
2022-11-20T15:07:24.613Z,14.27
2022-11-20T15:10:22.289Z,12.82
2022-11-20T15:12:51.217Z,14.73
2022-11-20T15:15:21.233Z,13.80
2022-11-20T15:17:48.683Z,12.38
2022-11-20T15:20:18.286Z,13.85
2022-11-20T15:22:45.661Z,12.70
2022-11-20T15:25:16.286Z,13.00
2022-11-20T15:27:44.057Z,13.75
2022-11-20T15:30:21.242Z,13.77
2022-11-20T15:32:49.897Z,14.02
2022-11-20T15:35:17.332Z,13.88
2022-11-20T15:41:37.650Z,14.27
2022-11-20T15:44:05.387Z,14.70
2022-11-20T15:46:38.342Z,15.18
2022-11-20T15:49:06.339Z,15.00
2022-11-20T15:51:35.957Z,14.77
2022-11-20T15:54:13.620Z,14.57
2022-11-20T15:56:40.979Z,14.93
2022-11-20T15:59:08.359Z,14.60
2022-11-20T16:01:36.023Z,14.50
2022-11-20T16:04:03.682Z,14.10
2022-11-20T16:06:30.986Z,14.25
2022-11-20T16:08:58.387Z,15.63
2022-11-20T16:11:25.825Z,14.15
2022-11-20T16:14:11.571Z,13.75
2022-11-20T16:16:42.847Z,14.13
2022-11-20T16:19:14.035Z,14.00
2022-11-20T16:21:42.844Z,14.50
2022-11-20T16:24:14.709Z,14.32
2022-11-20T16:26:42.508Z,13.88
2022-11-20T16:29:11.025Z,15.02
2022-11-20T16:31:38.767Z,15.30
2022-11-20T16:34:11.865Z,14.30
2022-11-20T16:41:02.298Z,13.88
2022-11-20T16:43:29.514Z,14.02
2022-11-20T16:45:56.947Z,14.20
2022-11-20T16:48:24.217Z,14.68
2022-11-20T16:50:52.908Z,14.20
2022-11-20T16:53:20.977Z,12.85
2022-11-20T16:55:48.518Z,13.90
2022-11-20T16:58:16.582Z,14.00
2022-11-20T17:00:49.954Z,13.77
2022-11-20T17:03:19.145Z,13.07
2022-11-20T17:05:46.401Z,12.80
2022-11-20T17:08:13.686Z,13.27
2022-11-20T17:10:41.046Z,12.43
2022-11-20T17:13:08.255Z,12.77
2022-11-20T17:15:35.603Z,13.40
2022-11-20T17:18:03.570Z,12.68
2022-11-20T17:20:32.328Z,12.80
2022-11-20T17:22:59.767Z,12.00
2022-11-20T17:25:29.168Z,12.30
2022-11-20T17:27:56.479Z,11.95
2022-11-20T17:30:23.789Z,11.75
2022-11-20T17:32:51.063Z,12.85
2022-11-20T17:35:18.433Z,13.52
2022-11-20T17:37:45.796Z,12.60
2022-11-20T17:40:13.143Z,12.77
2022-11-20T17:42:40.478Z,13.43
2022-11-20T17:45:07.826Z,14.00
2022-11-20T17:47:37.129Z,14.02
2022-11-20T17:50:04.900Z,13.35
2022-11-20T17:52:32.392Z,13.55
2022-11-20T17:55:00.377Z,13.98
2022-11-20T17:57:45.989Z,14.13
2022-11-20T18:00:13.477Z,12.82
2022-11-20T18:02:40.820Z,15.57
2022-11-20T18:05:08.242Z,14.48
2022-11-20T18:07:41.284Z,14.15
2022-11-20T18:10:09.646Z,13.90
2022-11-20T18:12:38.289Z,13.52
2022-11-20T18:15:05.674Z,13.38
2022-11-20T18:17:32.979Z,14.10
2022-11-20T18:20:27.250Z,14.57
2022-11-20T18:22:47.922Z,13.65
2022-11-20T18:25:17.130Z,13.25
2022-11-20T18:27:47.503Z,14.50
2022-11-20T18:30:15.634Z,13.13
2022-11-20T18:32:43.111Z,13.68
2022-11-20T18:35:10.630Z,13.50
2022-11-20T18:37:37.901Z,13.85
2022-11-20T18:40:05.677Z,14.13
2022-11-20T18:42:51.495Z,13.00
2022-11-20T18:45:18.904Z,13.30
2022-11-20T18:47:46.151Z,12.88
2022-11-20T18:50:13.507Z,13.40
2022-11-20T18:52:44.459Z,13.75
2022-11-20T18:55:12.893Z,13.23
2022-11-20T18:57:40.337Z,13.43
2022-11-20T19:00:09.630Z,15.15
2022-11-20T19:02:41.759Z,14.50
2022-11-20T19:05:10.925Z,14.30
2022-11-20T19:07:38.630Z,13.77
2022-11-20T19:10:06.402Z,14.05
2022-11-20T19:12:33.893Z,13.20
2022-11-20T19:15:01.172Z,13.65
2022-11-20T19:17:28.554Z,13.07
2022-11-20T19:19:55.865Z,12.45
2022-11-20T19:22:23.304Z,12.63
2022-11-20T19:24:51.178Z,13.10
2022-11-20T19:27:18.504Z,12.50
2022-11-20T19:29:45.836Z,13.23
2022-11-20T19:32:13.134Z,13.60
2022-11-20T19:34:41.719Z,13.60
2022-11-20T19:37:09.949Z,14.02
2022-11-20T19:39:40.505Z,12.88
2022-11-20T19:42:07.892Z,13.57
2022-11-20T19:44:35.197Z,13.27
2022-11-20T19:47:04.330Z,13.77
2022-11-20T19:49:31.757Z,13.00
2022-11-20T19:51:59.141Z,12.27
2022-11-20T19:54:26.714Z,13.52
2022-11-20T19:56:54.889Z,12.90
2022-11-20T19:59:22.582Z,13.27
2022-11-20T20:01:50.245Z,12.55
2022-11-20T20:04:17.630Z,13.30
2022-11-20T20:06:45.136Z,12.32
2022-11-20T20:09:13.784Z,14.65
2022-11-20T20:11:41.660Z,13.30
2022-11-20T20:14:10.950Z,13.23
2022-11-20T20:16:38.235Z,13.20
2022-11-20T20:19:05.883Z,12.80
2022-11-20T20:21:34.977Z,13.40
2022-11-20T20:24:06.829Z,13.20
2022-11-20T20:26:34.635Z,12.80
2022-11-20T20:29:02.608Z,12.02
2022-11-20T20:31:31.285Z,13.60
2022-11-20T20:33:58.744Z,12.65
2022-11-20T20:36:26.722Z,13.18
2022-11-20T20:38:54.579Z,13.13
2022-11-20T20:41:22.888Z,12.57
2022-11-20T20:44:08.754Z,13.30
2022-11-20T20:46:36.276Z,12.57
2022-11-20T20:49:03.758Z,12.75
2022-11-20T20:51:30.991Z,12.88
2022-11-20T20:53:58.381Z,13.63
2022-11-20T20:56:26.067Z,13.10
2022-11-20T20:58:53.353Z,12.98
2022-11-20T21:01:22.760Z,13.07
2022-11-20T21:03:50.099Z,13.40
2022-11-20T21:06:17.340Z,13.00
2022-11-20T21:08:44.953Z,13.63
2022-11-20T21:11:16.711Z,12.68
2022-11-20T21:13:44.954Z,13.65
2022-11-20T21:16:13.069Z,13.70
2022-11-20T21:18:40.395Z,13.70
2022-11-20T21:21:27.725Z,13.27
2022-11-20T21:23:55.021Z,13.57
2022-11-20T21:26:22.404Z,13.45
2022-11-20T21:28:50.176Z,12.85
2022-11-20T21:31:28.710Z,14.23
2022-11-20T21:33:56.968Z,13.52
2022-11-20T21:36:28.170Z,13.82
2022-11-20T21:38:56.257Z,12.93
2022-11-20T21:41:25.034Z,12.65
2022-11-20T21:44:28.986Z,13.45
2022-11-20T21:46:42.645Z,13.52
2022-11-20T21:49:10.409Z,13.40
2022-11-20T21:51:37.773Z,13.82
2022-11-20T21:54:05.049Z,14.05
2022-11-20T21:56:32.308Z,12.15
2022-11-20T21:59:00.900Z,13.00
2022-11-20T22:01:30.329Z,13.50
2022-11-20T22:03:59.383Z,13.65
2022-11-20T22:06:30.931Z,14.07
2022-11-20T22:09:02.305Z,14.60
2022-11-20T22:11:30.025Z,13.55
2022-11-20T22:14:36.517Z,14.15
2022-11-20T22:17:04.252Z,14.15
2022-11-20T22:19:33.922Z,13.52
2022-11-20T22:22:01.467Z,14.70
2022-11-20T22:24:31.185Z,14.20
2022-11-20T22:27:00.865Z,13.90
2022-11-20T22:29:28.640Z,14.88
2022-11-20T22:31:56.113Z,14.45
2022-11-20T22:34:23.873Z,14.13
2022-11-20T22:36:51.420Z,13.95
2022-11-20T22:39:22.784Z,14.07
2022-11-20T22:41:50.445Z,13.35
2022-11-20T22:44:17.968Z,13.68
2022-11-20T22:46:47.792Z,13.63
2022-11-20T22:49:18.189Z,14.13
2022-11-20T22:51:48.141Z,14.10
2022-11-20T22:54:15.824Z,14.13
2022-11-20T22:56:49.312Z,15.13
2022-11-20T22:59:18.546Z,13.13
2022-11-20T23:01:48.233Z,13.75
2022-11-20T23:04:19.874Z,14.15
2022-11-20T23:06:47.340Z,15.10
2022-11-20T23:09:14.766Z,15.15
2022-11-20T23:11:44.598Z,14.98
2022-11-20T23:14:16.354Z,15.57
2022-11-20T23:16:45.267Z,14.38
2022-11-20T23:19:18.704Z,14.68
2022-11-20T23:21:46.205Z,14.80
2022-11-20T23:24:13.587Z,14.77
2022-11-20T23:26:43.153Z,14.63
2022-11-20T23:29:10.769Z,15.65
2022-11-20T23:31:38.671Z,14.35
2022-11-20T23:34:06.152Z,14.15
2022-11-20T23:36:36.798Z,15.63
2022-11-20T23:39:08.867Z,14.02
2022-11-20T23:41:36.572Z,14.25
2022-11-20T23:44:08.761Z,14.88
2022-11-20T23:46:38.223Z,14.35
2022-11-20T23:49:08.110Z,15.00
2022-11-20T23:51:37.115Z,14.88
2022-11-20T23:54:05.096Z,14.00
2022-11-20T23:56:32.743Z,14.10
2022-11-20T23:59:00.470Z,14.43
